Time;durP1;ratioP1;P1;durP2;ratioP2;P2;SDS_P1;SDS_P2;PMS_P1;PMS_P2;Temp;Humidity;BMP_temperature;BMP_pressure;BME280_temperature;BME280_humidity;BME280_pressure;Samples;Min_cycle;Max_cycle;Signal;HPM_P1;HPM_P2
2023/06/28 00:01:38;;;;;;;4.63;2.28;;;;;;;22.74;47.25;100068.19;4883118;29;20080;-85
2023/06/28 00:04:05;;;;;;;7.45;1.92;;;;;;;22.71;47.25;100052.38;4887317;29;20061;-85
2023/06/28 00:06:32;;;;;;;5.90;2.00;;;;;;;22.70;47.16;100056.13;4879355;29;20043;-85
2023/06/28 00:08:59;;;;;;;2.90;2.05;;;;;;;22.69;46.43;100057.16;4887717;29;20394;-85
2023/06/28 00:11:27;;;;;;;5.35;2.08;;;;;;;22.71;43.86;100061.31;4871120;29;20059;-85
2023/06/28 00:13:54;;;;;;;3.97;2.30;;;;;;;22.71;44.06;100049.66;4875602;29;20064;-85
2023/06/28 00:16:21;;;;;;;3.95;1.75;;;;;;;22.69;46.09;100060.69;4890784;29;20044;-85
2023/06/28 00:18:48;;;;;;;4.57;1.80;;;;;;;22.70;46.41;100065.09;4865207;29;20127;-84
2023/06/28 00:21:15;;;;;;;4.07;1.98;;;;;;;22.68;46.56;100061.75;4893864;29;20048;-85
2023/06/28 00:23:42;;;;;;;6.80;2.17;;;;;;;22.71;46.39;100061.31;4880019;29;20064;-85
2023/06/28 00:26:09;;;;;;;3.42;1.60;;;;;;;22.73;45.50;100061.94;4878528;29;20127;-83
2023/06/28 00:28:36;;;;;;;3.55;1.80;;;;;;;22.74;44.84;100060.94;4867982;29;20055;-84
2023/06/28 00:31:03;;;;;;;3.50;2.20;;;;;;;22.75;43.79;100059.88;4859783;29;20052;-84
2023/06/28 00:33:29;;;;;;;3.60;2.00;;;;;;;22.72;44.37;100052.19;4873589;29;20049;-84
2023/06/28 00:35:56;;;;;;;5.47;1.92;;;;;;;22.73;43.88;100059.25;4876888;29;20583;-84
2023/06/28 00:38:23;;;;;;;4.57;1.58;;;;;;;22.74;43.35;100057.38;4857921;29;20064;-83
2023/06/28 00:40:50;;;;;;;7.47;2.47;;;;;;;22.75;42.80;100061.75;4845711;29;20071;-85
2023/06/28 00:43:16;;;;;;;4.82;1.80;;;;;;;22.72;42.39;100056.75;4865919;29;20131;-84
2023/06/28 00:45:43;;;;;;;4.43;1.90;;;;;;;22.75;42.64;100057.16;4873121;29;20045;-85
2023/06/28 00:48:10;;;;;;;2.65;1.70;;;;;;;22.73;43.04;100061.94;4860667;29;20040;-84
2023/06/28 00:50:37;;;;;;;4.97;1.88;;;;;;;22.73;43.46;100058.41;4863139;29;20457;-85
2023/06/28 00:53:04;;;;;;;3.53;1.58;;;;;;;22.71;43.73;100065.91;4880323;29;20127;-85
2023/06/28 00:55:31;;;;;;;2.95;1.70;;;;;;;22.65;44.14;100064.06;4868954;29;20048;-85
2023/06/28 00:58:00;;;;;;;6.18;1.73;;;;;;;22.67;44.51;100059.25;4877523;29;21133;-85
2023/06/28 01:00:27;;;;;;;4.35;1.95;;;;;;;22.65;44.23;100059.47;4874937;29;20438;-84
2023/06/28 01:02:54;;;;;;;2.33;1.83;;;;;;;22.62;44.04;100062.59;4893587;29;20390;-84
2023/06/28 01:05:21;;;;;;;3.42;1.65;;;;;;;22.61;44.38;100070.91;4845476;29;20059;-84
2023/06/28 01:07:50;;;;;;;2.70;1.60;;;;;;;22.57;44.52;100067.81;4844294;29;20980;-85
2023/06/28 01:10:17;;;;;;;3.30;1.70;;;;;;;22.57;44.46;100059.69;4898573;29;20064;-85
2023/06/28 01:12:45;;;;;;;2.10;1.70;;;;;;;22.60;44.19;100063.84;4907464;29;20128;-85
2023/06/28 01:15:12;;;;;;;2.40;1.60;;;;;;;22.54;44.54;100063.63;4880297;29;20101;-84
2023/06/28 01:17:39;;;;;;;3.78;1.75;;;;;;;22.55;44.12;100061.75;4850464;29;20049;-85
2023/06/28 01:20:06;;;;;;;3.67;1.95;;;;;;;22.55;44.23;100056.34;4852883;29;20044;-85
2023/06/28 01:22:34;;;;;;;4.93;1.88;;;;;;;22.56;44.15;100060.72;4855797;29;20385;-84
2023/06/28 01:25:04;;;;;;;3.00;1.80;;;;;;;22.56;44.15;100070.69;4893094;29;20052;-85
2023/06/28 01:27:30;;;;;;;3.55;1.70;;;;;;;22.53;44.01;100064.66;4848223;29;20554;-84
2023/06/28 01:29:57;;;;;;;6.68;3.05;;;;;;;22.54;44.01;100060.06;4845150;29;20059;-84
2023/06/28 01:32:24;;;;;;;3.67;2.35;;;;;;;22.51;43.93;100065.91;4878295;29;20063;-85
2023/06/28 01:34:51;;;;;;;5.57;2.15;;;;;;;22.46;44.22;100063.81;4876665;29;20041;-85
2023/06/28 01:37:22;;;;;;;3.15;1.95;;;;;;;22.43;43.99;100060.72;4863734;29;20048;-85
2023/06/28 01:39:49;;;;;;;5.38;2.08;;;;;;;22.42;45.44;100064.47;4889106;29;20063;-85
2023/06/28 01:42:18;;;;;;;9.55;2.40;;;;;;;22.39;45.78;100060.31;4877072;29;20599;-84
2023/06/28 01:44:45;;;;;;;3.05;1.92;;;;;;;22.34;47.71;100060.09;4898138;29;20078;-85
2023/06/28 01:47:11;;;;;;;3.03;2.10;;;;;;;22.31;48.27;100069.47;4850844;29;20036;-84
2023/06/28 01:49:38;;;;;;;3.58;2.20;;;;;;;22.31;48.38;100072.16;4873879;29;20126;-84
2023/06/28 01:52:05;;;;;;;5.88;2.20;;;;;;;22.30;48.42;100062.38;4892821;29;20076;-84
2023/06/28 01:54:33;;;;;;;3.70;2.50;;;;;;;22.28;48.43;100071.72;4859651;29;20500;-84
2023/06/28 01:57:01;;;;;;;4.07;2.13;;;;;;;22.25;47.77;100066.75;4874244;29;20120;-85
2023/06/28 01:59:30;;;;;;;3.50;1.70;;;;;;;22.22;47.52;100061.75;4858625;29;20049;-84
2023/06/28 02:01:57;;;;;;;4.00;1.83;;;;;;;22.23;48.13;100061.53;4895143;29;20052;-84
2023/06/28 02:04:24;;;;;;;1.60;1.50;;;;;;;22.22;47.63;100059.03;4870489;29;20150;-85
2023/06/28 02:06:52;;;;;;;5.97;2.38;;;;;;;22.17;47.65;100059.63;4862264;29;20504;-84
2023/06/28 02:09:19;;;;;;;1.85;1.50;;;;;;;22.16;47.09;100057.09;4856213;29;20055;-85
2023/06/28 02:11:46;;;;;;;4.00;1.77;;;;;;;22.09;46.73;100062.53;4857255;29;20049;-86
2023/06/28 02:14:13;;;;;;;3.08;1.75;;;;;;;22.11;46.93;100072.09;4889027;29;20529;-85
2023/06/28 02:16:41;;;;;;;3.38;1.98;;;;;;;22.11;47.14;100071.28;4862099;29;20052;-84
2023/06/28 02:19:12;;;;;;;1.85;1.45;;;;;;;22.05;47.25;100072.91;4877710;29;20131;-85
2023/06/28 02:21:40;;;;;;;3.42;1.73;;;;;;;22.05;47.44;100066.66;4875995;29;20123;-85
2023/06/28 02:24:08;;;;;;;3.90;2.10;;;;;;;22.05;47.44;100062.09;4858096;29;20052;-85
2023/06/28 02:26:35;;;;;;;3.50;1.92;;;;;;;22.06;47.25;100060.25;4875425;29;20405;-85
2023/06/28 02:29:02;;;;;;;2.88;1.83;;;;;;;22.05;47.52;100062.09;4864697;29;20073;-85
2023/06/28 02:31:28;;;;;;;4.18;1.92;;;;;;;22.04;47.85;100056.91;4862098;29;20056;-85
2023/06/28 02:33:55;;;;;;;4.35;2.20;;;;;;;22.04;48.19;100062.31;4879237;29;20059;-84
2023/06/28 02:36:22;;;;;;;4.22;2.05;;;;;;;22.01;48.06;100058.16;4852670;29;20462;-85
2023/06/28 02:38:49;;;;;;;3.47;1.80;;;;;;;22.00;48.08;100055.63;4859612;29;20058;-85
2023/06/28 02:41:16;;;;;;;4.38;1.88;;;;;;;21.99;47.93;100065.63;4856134;29;20055;-85
2023/06/28 02:43:43;;;;;;;5.47;1.90;;;;;;;21.98;47.41;100069.38;4887916;29;20056;-85
2023/06/28 02:46:09;;;;;;;2.92;1.88;;;;;;;21.98;47.42;100073.94;4886211;29;20478;-85
2023/06/28 02:48:36;;;;;;;5.95;2.30;;;;;;;21.99;47.38;100072.91;4899104;29;20048;-86
2023/06/28 02:51:04;;;;;;;4.72;2.20;;;;;;;21.95;47.28;100072.47;4881807;29;20059;-85
2023/06/28 02:53:31;;;;;;;4.35;1.90;;;;;;;21.95;47.09;100066.22;4842019;29;20489;-85
2023/06/28 02:55:57;;;;;;;3.25;1.65;;;;;;;21.89;47.04;100066.00;4876724;29;20458;-85
2023/06/28 02:58:44;;;;;;;3.75;1.85;;;;;;;21.89;47.54;100073.28;4869112;29;20104;-85
2023/06/28 03:01:11;;;;;;;4.45;1.90;;;;;;;21.93;48.17;100082.69;4856694;29;20057;-85
2023/06/28 03:03:38;;;;;;;2.53;1.60;;;;;;;21.90;48.49;100080.34;4871794;29;20044;-85
2023/06/28 03:06:05;;;;;;;6.05;1.80;;;;;;;21.89;48.40;100079.53;4879565;29;20406;-85
2023/06/28 03:08:32;;;;;;;3.97;2.03;;;;;;;21.87;48.10;100089.72;4874150;29;20052;-85
2023/06/28 03:10:59;;;;;;;2.38;1.60;;;;;;;21.84;47.69;100075.78;4886658;29;20048;-85
2023/06/28 03:13:26;;;;;;;3.53;2.00;;;;;;;21.81;47.23;100079.72;4887517;29;20127;-86
2023/06/28 03:15:53;;;;;;;5.15;1.77;;;;;;;21.80;48.00;100072.63;4868754;29;21654;-85
2023/06/28 03:18:20;;;;;;;2.63;1.70;;;;;;;21.81;48.46;100082.41;4874956;29;20070;-83
2023/06/28 03:20:47;;;;;;;4.20;2.03;;;;;;;21.82;48.29;100083.25;4856579;29;20190;-82
2023/06/28 03:23:14;;;;;;;4.22;1.92;;;;;;;21.81;48.14;100078.88;4882929;29;20052;-83
2023/06/28 03:25:41;;;;;;;2.85;1.73;;;;;;;21.81;48.25;100082.41;4864748;29;20070;-83
2023/06/28 03:28:08;;;;;;;1.95;1.60;;;;;;;21.78;48.08;100068.47;4871786;29;20063;-83
2023/06/28 03:30:35;;;;;;;4.65;2.08;;;;;;;21.76;47.94;100076.78;4854638;29;20104;-83
2023/06/28 03:33:03;;;;;;;2.90;1.88;;;;;;;21.73;47.77;100079.91;4879229;29;20052;-83
2023/06/28 03:35:31;;;;;;;1.77;1.60;;;;;;;21.72;47.54;100080.91;4854413;29;20049;-83
2023/06/28 03:37:57;;;;;;;3.20;1.75;;;;;;;21.73;47.58;100098.81;4857312;29;20441;-83
2023/06/28 03:40:24;;;;;;;3.45;1.63;;;;;;;21.72;48.18;100080.09;4892138;29;20081;-83
2023/06/28 03:42:52;;;;;;;3.97;2.60;;;;;;;21.73;48.14;100084.44;4887870;29;20049;-84
2023/06/28 03:45:20;;;;;;;7.78;1.98;;;;;;;21.71;48.66;100086.56;4877790;29;20131;-84
2023/06/28 03:47:47;;;;;;;4.63;1.92;;;;;;;21.70;49.11;100088.41;4889920;29;20052;-84
2023/06/28 03:50:14;;;;;;;4.53;2.03;;;;;;;21.66;49.68;100090.69;4867926;29;20049;-83
2023/06/28 03:52:41;;;;;;;8.40;2.13;;;;;;;21.65;50.15;100090.88;4863029;29;20057;-83
2023/06/28 03:55:11;;;;;;;3.58;2.22;;;;;;;21.63;49.95;100088.38;4872635;29;21035;-83
2023/06/28 03:57:37;;;;;;;7.88;2.53;;;;;;;21.58;50.05;100090.03;4866843;29;20057;-83
2023/06/28 04:00:08;;;;;;;4.20;2.25;;;;;;;21.55;50.27;100091.28;4871541;29;20052;-83
2023/06/28 04:02:41;;;;;;;2.63;1.98;;;;;;;21.55;50.02;100093.13;4874937;29;20776;-83
2023/06/28 04:05:08;;;;;;;5.55;2.10;;;;;;;21.55;50.00;100093.13;4841803;29;20109;-83
2023/06/28 04:07:35;;;;;;;3.50;2.47;;;;;;;21.57;49.78;100093.75;4864957;29;20873;-83
2023/06/28 04:10:02;;;;;;;6.32;2.60;;;;;;;21.55;49.76;100096.66;4889653;29;20092;-82
2023/06/28 04:12:29;;;;;;;7.57;3.75;;;;;;;21.55;49.96;100098.50;4874612;29;20424;-82
2023/06/28 04:14:56;;;;;;;4.47;2.50;;;;;;;21.52;49.88;100096.22;4881751;29;20779;-81
2023/06/28 04:17:23;;;;;;;4.70;2.50;;;;;;;21.55;50.14;100093.97;4870921;29;20059;-81
2023/06/28 04:19:50;;;;;;;2.97;2.15;;;;;;;21.52;50.08;100097.06;4889179;29;20053;-81
2023/06/28 04:22:17;;;;;;;6.38;1.92;;;;;;;21.53;49.90;100098.72;4897275;29;20040;-85
2023/06/28 04:24:43;;;;;;;2.95;1.80;;;;;;;21.53;49.43;100098.72;4877892;29;20048;-83
2023/06/28 04:27:10;;;;;;;4.68;1.92;;;;;;;21.52;50.15;100102.44;4862643;29;20112;-84
2023/06/28 04:29:37;;;;;;;2.63;1.88;;;;;;;21.51;50.00;100102.69;4887987;29;23894;-85
2023/06/28 04:32:20;;;;;;;2.00;1.88;;;;;;;21.41;50.79;100101.16;4880347;29;20051;-85
2023/06/28 04:34:52;;;;;;;3.88;1.60;;;;;;;21.53;49.90;100095.22;4874214;29;20108;-85
2023/06/28 04:37:20;;;;;;;2.58;1.80;;;;;;;21.53;50.30;100101.44;4894402;29;20582;-85
2023/06/28 04:39:47;;;;;;;5.55;2.00;;;;;;;21.56;50.51;100108.31;4876816;29;20041;-85
2023/06/28 04:42:17;;;;;;;6.10;1.90;;;;;;;21.52;50.74;100099.75;4848471;29;20056;-84
2023/06/28 04:44:46;;;;;;;6.25;2.15;;;;;;;21.54;50.62;100103.09;4889646;29;20102;-85
2023/06/28 04:47:15;;;;;;;5.30;2.25;;;;;;;21.52;50.46;100098.94;4893797;29;20108;-85
2023/06/28 04:49:47;;;;;;;2.97;2.45;;;;;;;;;;4866511;29;20049;-85
2023/06/28 04:52:18;;;;;;;6.47;2.40;;;;;;;21.51;50.78;100100.81;4876200;29;20052;-85
2023/06/28 04:54:46;;;;;;;2.33;2.00;;;;;;;21.51;50.55;100098.09;4884561;29;20060;-84
2023/06/28 04:57:13;;;;;;;3.78;2.00;;;;;;;21.53;50.49;100096.03;4850667;29;20056;-85
2023/06/28 04:59:40;;;;;;;3.63;2.17;;;;;;;21.51;50.25;100103.50;4891141;29;20478;-84
2023/06/28 05:02:09;;;;;;;2.60;2.13;;;;;;;21.54;50.33;100100.38;4879032;29;20048;-84
2023/06/28 05:04:39;;;;;;;4.65;2.00;;;;;;;21.54;50.72;100097.69;4866520;29;20060;-85
2023/06/28 05:07:09;;;;;;;4.10;2.25;;;;;;;21.54;50.71;100095.00;4864936;29;20528;-84
2023/06/28 05:09:37;;;;;;;3.95;1.92;;;;;;;21.54;51.00;100100.38;4870491;29;20692;-86
2023/06/28 05:12:05;;;;;;;3.17;1.95;;;;;;;21.54;51.02;100102.25;4863865;29;20477;-84
2023/06/28 05:14:31;;;;;;;3.53;2.60;;;;;;;21.55;51.11;100103.91;4863385;29;20100;-85
2023/06/28 05:16:58;;;;;;;2.15;1.92;;;;;;;21.54;51.07;100099.56;4880188;29;20547;-85
2023/06/28 05:19:25;;;;;;;4.53;2.30;;;;;;;21.52;51.37;100099.75;4855905;29;20393;-85
2023/06/28 05:21:53;;;;;;;7.32;2.22;;;;;;;21.55;51.42;100098.50;4878453;29;20052;-85
2023/06/28 05:24:20;;;;;;;4.97;2.25;;;;;;;21.52;51.58;100097.06;4869870;29;20109;-85
2023/06/28 05:26:47;;;;;;;4.70;2.20;;;;;;;21.55;51.06;100099.38;4879276;29;20480;-87
2023/06/28 05:29:13;;;;;;;3.22;2.08;;;;;;;21.55;50.97;100093.13;4874274;29;20067;-85
2023/06/28 05:31:41;;;;;;;2.95;2.10;;;;;;;21.55;51.26;100096.66;4868623;29;20052;-85
2023/06/28 05:34:08;;;;;;;3.08;2.00;;;;;;;21.55;51.18;100103.91;4892054;29;20037;-85
2023/06/28 05:36:35;;;;;;;6.00;2.22;;;;;;;21.55;50.69;100103.91;4870144;29;20057;-85
2023/06/28 05:39:02;;;;;;;4.78;2.42;;;;;;;21.54;50.42;100103.09;4868837;29;20059;-86
2023/06/28 05:41:29;;;;;;;5.80;2.30;;;;;;;21.55;50.66;100104.78;4899548;29;20072;-85
2023/06/28 05:43:56;;;;;;;5.55;2.15;;;;;;;21.55;50.61;100098.50;4846844;29;20381;-85
2023/06/28 05:46:23;;;;;;;5.15;2.20;;;;;;;21.55;50.35;100103.91;4874914;29;20059;-85
2023/06/28 05:48:50;;;;;;;3.35;1.92;;;;;;;21.57;50.44;100099.16;4866316;29;20489;-86
2023/06/28 05:51:17;;;;;;;7.53;2.42;;;;;;;21.60;50.84;100104.16;4861621;29;20068;-85
2023/06/28 05:53:43;;;;;;;8.25;2.50;;;;;;;21.57;50.55;100091.88;4888875;29;20045;-85
2023/06/28 05:56:10;;;;;;;3.97;2.30;;;;;;;21.59;50.55;100102.50;4866734;29;20516;-85
2023/06/28 05:58:37;;;;;;;6.95;2.30;;;;;;;21.59;50.94;100102.50;4860491;29;20068;-85
2023/06/28 06:01:04;;;;;;;3.90;2.30;;;;;;;21.60;51.03;100096.91;4873809;29;20049;-85
2023/06/28 06:03:30;;;;;;;8.75;2.28;;;;;;;21.58;50.67;100104.38;4889032;29;20049;-85
2023/06/28 06:05:58;;;;;;;4.47;2.17;;;;;;;21.60;50.22;100109.56;4861538;29;20052;-85
2023/06/28 06:08:24;;;;;;;2.95;2.30;;;;;;;21.60;50.12;100105.00;4876178;29;20501;-85
2023/06/28 06:10:51;;;;;;;8.63;2.50;;;;;;;21.61;49.89;100101.25;4874169;29;20464;-85
2023/06/28 06:13:18;;;;;;;8.32;2.40;;;;;;;21.61;50.33;100097.72;4862374;29;20045;-85
2023/06/28 06:15:45;;;;;;;8.23;2.78;;;;;;;21.61;50.32;100098.56;4867815;29;20056;-85
2023/06/28 06:18:11;;;;;;;4.53;2.25;;;;;;;21.62;50.31;100108.31;4881525;29;20894;-85
2023/06/28 06:20:38;;;;;;;3.22;2.50;;;;;;;21.58;50.32;100106.25;4866766;29;20092;-85
2023/06/28 06:23:05;;;;;;;4.93;2.33;;;;;;;21.57;50.19;100110.78;4871644;29;20101;-85
2023/06/28 06:25:32;;;;;;;5.28;2.42;;;;;;;21.58;50.41;100107.06;4892246;29;20045;-85
2023/06/28 06:27:59;;;;;;;6.13;2.60;;;;;;;21.59;50.06;100105.19;4869121;29;20505;-85
2023/06/28 06:30:26;;;;;;;4.57;2.30;;;;;;;21.61;50.47;100105.84;4890306;29;20050;-85
2023/06/28 06:32:53;;;;;;;5.85;2.40;;;;;;;21.60;50.27;100113.13;4888003;29;20096;-85
2023/06/28 06:35:19;;;;;;;6.72;2.70;;;;;;;21.62;50.40;100111.03;4870301;29;20097;-85
2023/06/28 06:37:46;;;;;;;4.85;2.22;;;;;;;21.60;50.12;100115.81;4879111;29;20040;-85
2023/06/28 06:40:13;;;;;;;8.85;2.13;;;;;;;21.60;50.41;100114.97;4863296;29;21104;-85
2023/06/28 06:42:40;;;;;;;5.35;2.45;;;;;;;21.57;50.82;100121.59;4868013;29;20057;-85
2023/06/28 06:45:07;;;;;;;5.63;2.58;;;;;;;21.57;50.50;100118.06;4882144;29;20048;-86
2023/06/28 06:47:37;;;;;;;7.40;2.35;;;;;;;21.56;50.48;100121.81;4871376;29;20067;-85
2023/06/28 06:50:04;;;;;;;3.70;2.15;;;;;;;21.57;50.35;100118.06;4876552;29;20115;-85
2023/06/28 06:52:31;;;;;;;5.55;2.38;;;;;;;21.57;50.54;100128.88;4876344;29;20131;-85
2023/06/28 06:54:58;;;;;;;7.75;2.40;;;;;;;21.58;50.32;100127.88;4884045;29;20132;-86
2023/06/28 06:57:25;;;;;;;8.60;2.42;;;;;;;21.58;49.99;100120.59;4874941;29;20052;-85
2023/06/28 06:59:51;;;;;;;9.52;2.53;;;;;;;21.59;50.05;100124.13;4881037;29;20103;-85
2023/06/28 07:02:19;;;;;;;4.93;2.20;;;;;;;21.57;50.03;100127.00;4876498;29;20543;-85
2023/06/28 07:04:46;;;;;;;8.68;2.33;;;;;;;21.61;49.73;100139.09;4852096;29;20082;-85
2023/06/28 07:07:13;;;;;;;4.20;2.67;;;;;;;21.62;49.75;100129.13;4885206;29;20059;-85
2023/06/28 07:09:40;;;;;;;6.72;2.55;;;;;;;21.60;49.93;100129.34;4865364;29;20136;-85
2023/06/28 07:12:08;;;;;;;6.28;2.20;;;;;;;21.60;50.04;100132.03;4879154;29;20052;-85
2023/06/28 07:14:34;;;;;;;6.57;3.17;;;;;;;21.59;50.06;100127.66;4859103;29;20044;-85
2023/06/28 07:17:01;;;;;;;7.20;2.80;;;;;;;21.62;50.15;100127.22;4880489;29;20056;-85
2023/06/28 07:19:28;;;;;;;7.25;3.22;;;;;;;21.65;50.30;100126.00;4873598;29;20111;-85
2023/06/28 07:21:55;;;;;;;9.32;2.95;;;;;;;21.67;50.23;100129.34;4893998;29;20119;-85
2023/06/28 07:24:22;;;;;;;8.85;2.70;;;;;;;21.70;49.86;100125.41;4884932;29;20519;-85
2023/06/28 07:26:48;;;;;;;5.20;2.83;;;;;;;21.70;50.45;100133.50;4859421;29;20501;-85
2023/06/28 07:29:15;;;;;;;7.20;2.53;;;;;;;21.69;50.29;100132.69;4847759;29;20044;-85
2023/06/28 07:31:42;;;;;;;9.20;2.67;;;;;;;21.70;50.13;100133.50;4871639;29;20048;-85
2023/06/28 07:34:09;;;;;;;7.85;3.00;;;;;;;21.70;50.41;100131.63;4879743;29;20139;-85
2023/06/28 07:36:36;;;;;;;6.20;2.85;;;;;;;21.71;50.23;100127.91;4876836;29;20843;-85
2023/06/28 07:39:02;;;;;;;4.18;2.70;;;;;;;21.78;50.34;100128.78;4860871;29;20756;-86
2023/06/28 07:41:29;;;;;;;6.82;3.15;;;;;;;21.85;50.46;100132.34;4872496;29;20143;-86
2023/06/28 07:43:56;;;;;;;5.78;2.92;;;;;;;21.92;50.48;100134.25;4884465;29;20515;-85
2023/06/28 07:46:23;;;;;;;7.30;2.85;;;;;;;21.96;50.50;100130.09;4889004;29;20066;-86
2023/06/28 07:48:51;;;;;;;3.83;3.38;;;;;;;21.99;50.48;100133.22;4898022;29;20055;-85
2023/06/28 07:51:17;;;;;;;9.50;3.38;;;;;;;22.01;50.66;100128.44;4881147;29;20127;-85
2023/06/28 07:53:45;;;;;;;10.40;2.90;;;;;;;22.02;50.12;100130.09;4876234;29;20060;-85
2023/06/28 07:56:13;;;;;;;4.18;2.63;;;;;;;22.00;50.30;100131.34;4888412;29;20056;-86
2023/06/28 07:58:40;;;;;;;5.30;2.35;;;;;;;22.00;50.41;100124.06;4876119;29;20049;-86
2023/06/28 08:01:06;;;;;;;10.13;3.05;;;;;;;22.04;50.31;100124.50;4888654;29;20650;-85
2023/06/28 08:03:33;;;;;;;11.20;2.88;;;;;;;22.05;50.18;100124.28;4872461;29;20049;-85
2023/06/28 08:06:00;;;;;;;8.85;2.88;;;;;;;22.06;50.56;100122.44;4864935;29;20056;-85
2023/06/28 08:08:27;;;;;;;6.20;3.15;;;;;;;22.09;50.61;100125.56;4872389;29;20100;-85
2023/06/28 08:10:54;;;;;;;4.55;2.65;;;;;;;22.14;50.59;100122.25;4863252;29;20044;-85
2023/06/28 08:13:20;;;;;;;7.03;2.70;;;;;;;22.18;50.76;100117.25;4885762;29;20424;-86
2023/06/28 08:15:47;;;;;;;5.15;2.70;;;;;;;22.17;50.38;100111.00;4861891;29;20100;-86
2023/06/28 08:18:16;;;;;;;5.07;2.58;;;;;;;22.25;50.67;100115.44;4882294;29;20044;-85
2023/06/28 08:20:47;;;;;;;7.03;2.63;;;;;;;22.27;50.39;100124.19;4885849;29;20048;-85
2023/06/28 08:23:14;;;;;;;7.85;2.38;;;;;;;22.27;50.16;100116.88;4891913;29;20116;-85
2023/06/28 08:25:40;;;;;;;5.80;2.72;;;;;;;22.29;49.73;100112.13;4896095;29;20151;-85
2023/06/28 08:28:08;;;;;;;8.40;2.53;;;;;;;22.33;49.65;100110.63;4860604;29;20049;-85
2023/06/28 08:30:35;;;;;;;9.85;2.65;;;;;;;22.36;49.63;100113.97;4856993;29;20140;-85
2023/06/28 08:33:02;;;;;;;6.47;2.20;;;;;;;22.40;49.55;100109.84;4866639;29;20345;-85
2023/06/28 08:35:29;;;;;;;5.93;2.58;;;;;;;22.35;49.23;100113.16;4873497;29;20049;-86
2023/06/28 08:37:56;;;;;;;6.60;2.95;;;;;;;22.39;48.93;100105.44;4885569;29;20071;-86
2023/06/28 08:40:27;;;;;;;8.93;2.67;;;;;;;22.42;48.81;100105.88;4885590;29;20140;-86
2023/06/28 08:42:58;;;;;;;5.30;2.58;;;;;;;22.45;48.73;100102.75;4870330;29;20072;-85
2023/06/28 08:45:25;;;;;;;5.50;3.25;;;;;;;22.50;48.58;100107.56;4885857;29;20099;-86
2023/06/28 08:47:54;;;;;;;3.63;2.30;;;;;;;22.58;48.81;100104.63;4864727;29;20059;-85
2023/06/28 08:50:21;;;;;;;4.47;2.55;;;;;;;22.62;48.94;100105.91;4885692;29;20405;-85
2023/06/28 08:52:49;;;;;;;11.48;2.83;;;;;;;22.66;48.66;100100.91;4866138;29;20073;-85
2023/06/28 08:55:16;;;;;;;6.25;2.25;;;;;;;22.71;48.53;100104.63;4863720;29;20056;-85
2023/06/28 08:57:43;;;;;;;2.60;2.20;;;;;;;22.75;48.62;100100.47;4883610;29;20044;-85
2023/06/28 09:00:10;;;;;;;4.40;2.17;;;;;;;22.80;48.17;100099.03;4864513;29;20488;-85
2023/06/28 09:02:40;;;;;;;5.75;2.33;;;;;;;22.84;47.77;100097.56;4891159;29;20133;-85
2023/06/28 09:05:09;;;;;;;3.80;1.98;;;;;;;22.87;48.22;100107.97;4851608;29;20060;-86
2023/06/28 09:07:40;;;;;;;6.88;2.50;;;;;;;22.93;48.00;100104.44;4877134;29;20096;-86
2023/06/28 09:10:08;;;;;;;5.32;2.10;;;;;;;23.05;47.88;100110.06;4878466;29;20041;-85
2023/06/28 09:12:35;;;;;;;6.85;2.40;;;;;;;23.08;47.57;100109.66;4874277;29;20082;-85
2023/06/28 09:15:03;;;;;;;8.90;2.40;;;;;;;23.10;46.66;100097.56;4877413;29;20048;-85
2023/06/28 09:17:30;;;;;;;4.55;2.30;;;;;;;23.10;46.41;100102.97;4863153;29;20066;-85
2023/06/28 09:20:02;;;;;;;4.32;2.15;;;;;;;23.10;46.04;100097.56;4890986;29;20044;-86
2023/06/28 09:22:28;;;;;;;5.07;2.05;;;;;;;23.13;46.55;100099.03;4882339;29;20776;-85
2023/06/28 09:25:02;;;;;;;4.28;2.42;;;;;;;23.02;43.30;100107.78;4853793;29;20160;-85
2023/06/28 09:27:29;;;;;;;7.05;2.10;;;;;;;23.02;43.83;100105.88;4902439;29;20073;-86
2023/06/28 09:30:18;;;;;;;8.35;1.90;;;;;;;22.96;43.56;100095.88;4879378;29;20060;-85
2023/06/28 09:32:50;;;;;;;4.93;2.35;;;;;;;22.96;43.66;100083.16;4873593;29;20053;-85
2023/06/28 09:35:18;;;;;;;6.60;2.10;;;;;;;22.96;43.81;100090.47;4875115;29;20572;-86
2023/06/28 09:38:07;;;;;;;4.55;2.30;;;;;;;22.95;43.92;100094.22;4898635;29;20056;-85
2023/06/28 09:40:34;;;;;;;2.88;1.95;;;;;;;23.05;44.15;100086.53;4873979;29;20044;-86
2023/06/28 09:43:02;;;;;;;4.07;2.03;;;;;;;23.16;43.59;100085.88;4868868;29;20163;-86
2023/06/28 09:45:32;;;;;;;4.22;1.83;;;;;;;23.27;42.88;100088.97;4868838;29;20832;-86
2023/06/28 09:48:00;;;;;;;4.28;2.10;;;;;;;23.34;42.48;100085.19;4878613;29;20073;-86
2023/06/28 09:50:38;;;;;;;2.20;1.65;;;;;;;23.38;42.44;100082.88;4881647;29;20138;-85
2023/06/28 09:53:10;;;;;;;4.75;1.98;;;;;;;23.49;41.50;100084.94;4875185;29;20044;-85
2023/06/28 09:55:38;;;;;;;6.28;1.95;;;;;;;23.49;41.25;100079.53;4871724;29;20048;-85
2023/06/28 09:58:11;;;;;;;4.35;2.10;;;;;;;23.51;41.52;100069.31;4866366;29;20802;-86
2023/06/28 10:00:39;;;;;;;6.35;1.60;;;;;;;23.58;41.30;100075.53;4867940;29;20485;-85
2023/06/28 10:03:08;;;;;;;3.67;1.67;;;;;;;23.63;41.09;100074.88;4868645;29;20131;-86
2023/06/28 10:05:37;;;;;;;5.25;1.80;;;;;;;23.62;41.15;100078.63;4884040;29;20048;-85
2023/06/28 10:08:07;;;;;;;3.75;1.88;;;;;;;23.65;41.16;100082.78;4843191;29;20087;-86
2023/06/28 10:10:34;;;;;;;4.57;2.20;;;;;;;23.66;40.91;100077.16;4888203;29;20480;-86
2023/06/28 10:13:11;;;;;;;3.55;1.90;;;;;;;23.64;40.51;100078.44;4881235;29;20567;-86
2023/06/28 10:15:51;;;;;;;3.55;1.52;;;;;;;23.70;40.27;100069.44;4874298;29;20048;-86
2023/06/28 10:18:18;;;;;;;2.92;1.98;;;;;;;23.82;39.55;100063.13;4859239;29;20048;-86
2023/06/28 10:20:47;;;;;;;5.57;2.03;;;;;;;23.74;40.55;100062.56;4882759;29;20075;-86
2023/06/28 10:23:16;;;;;;;5.18;1.95;;;;;;;23.74;40.46;100057.97;4880276;29;20047;-86
2023/06/28 10:25:46;;;;;;;4.72;1.65;;;;;;;23.72;39.96;100056.50;4877285;29;20402;-85
2023/06/28 10:28:14;;;;;;;5.30;1.90;;;;;;;23.78;39.94;100055.66;4843673;29;20080;-85
2023/06/28 10:30:45;;;;;;;6.07;1.90;;;;;;;23.74;39.84;100068.00;4849395;29;20060;-86
2023/06/28 10:33:15;;;;;;;3.75;1.75;;;;;;;23.74;39.59;100070.69;4867147;29;20053;-85
2023/06/28 10:35:45;;;;;;;3.67;1.70;;;;;;;23.73;39.99;100060.88;4858686;29;20453;-86
2023/06/28 10:38:12;;;;;;;5.07;1.80;;;;;;;23.71;39.75;100063.81;4886772;29;20497;-85
2023/06/28 10:40:39;;;;;;;4.47;2.20;;;;;;;23.71;40.41;100063.81;4858092;29;20067;-85
2023/06/28 10:43:06;;;;;;;5.40;2.45;;;;;;;23.70;40.73;100051.28;4873535;29;20041;-85
2023/06/28 10:45:33;;;;;;;3.65;1.92;;;;;;;23.66;40.45;100066.31;4868036;29;20052;-86
2023/06/28 10:48:00;;;;;;;1.73;1.50;;;;;;;23.70;40.22;100067.53;4869335;29;21597;-86
2023/06/28 10:50:27;;;;;;;3.50;1.77;;;;;;;23.75;40.23;100059.63;4885635;29;20493;-86
2023/06/28 10:52:56;;;;;;;5.25;2.28;;;;;;;23.81;40.25;100053.34;4878422;29;20072;-86
2023/06/28 10:55:31;;;;;;;4.55;2.13;;;;;;;23.83;39.44;100059.34;4856565;29;20079;-86
2023/06/28 10:58:09;;;;;;;4.25;2.13;;;;;;;23.85;39.93;100050.19;4857873;29;20060;-86
2023/06/28 11:00:49;;;;;;;4.13;1.85;;;;;;;23.87;40.02;100054.34;4855895;29;20518;-86
2023/06/28 11:03:18;;;;;;;3.95;1.90;;;;;;;23.95;39.75;100053.25;4864579;29;20048;-86
2023/06/28 11:05:45;;;;;;;4.78;2.15;;;;;;;23.98;39.67;100050.94;4881552;29;20509;-86
2023/06/28 11:08:16;;;;;;;3.90;2.00;;;;;;;24.03;39.62;100048.41;4888112;29;20116;-86
2023/06/28 11:10:48;;;;;;;6.57;2.15;;;;;;;23.97;39.20;100051.16;4857771;29;20045;-86
2023/06/28 11:13:34;;;;;;;;;;;;;;;23.79;39.36;100043.75;4871706;29;20427;-86
2023/06/28 11:16:07;;;;;;;3.78;1.80;;;;;;;23.94;39.47;100038.88;4876948;29;19924;-86
2023/06/28 11:18:34;;;;;;;4.03;1.95;;;;;;;23.95;39.46;100040.53;4877816;29;20049;-86
2023/06/28 11:21:02;;;;;;;2.00;1.70;;;;;;;23.99;39.76;100044.47;4876134;29;20496;-86
2023/06/28 11:23:41;;;;;;;3.03;2.00;;;;;;;23.96;39.52;100046.78;4863603;29;20067;-86
2023/06/28 11:26:15;;;;;;;3.33;1.85;;;;;;;23.90;39.31;100043.06;4857424;29;20481;-86
2023/06/28 11:28:54;;;;;;;2.33;1.90;;;;;;;23.84;38.26;100052.09;4879029;29;20044;-85
2023/06/28 11:31:40;;;;;;;3.13;1.85;;;;;;;23.90;39.16;100048.50;4879294;29;20112;-86